Main page
METAR-TAF:

METAR-TAF

Airports :

Šiauliai International Airport

Šiauliai, Lithuania

latitude: 55-53-38N, longitude: 023-23-42E, elevation: 135 m

Current weather observation

The report was made 38 minutes ago, at 21:20 UTC
Wind 10 kt from the Southeast
Temperature 9°C
Humidity 61%
Pressure 1018 hPa
Visibility 10 km or more
no clouds below 1500 m and no cumulonimbus

METAR: EYSA 112120Z 13010KT CAVOK 09/02 Q1018 BLU NOSIG

Time: 00:58 (21:58 UTC)

Forecast

The report was made 1 hour and 58 minutes ago, at 20:00 UTC
Forecast valid from 11 at 21 UTC to 12 at 06 UTC
Wind 12 kt from the South/Southeast
Visibility 10 km or more
no clouds below 1500 m and no cumulonimbus

TAF: EYSA 112000Z 1121/1206 15012KT CAVOK

Weather observations and forecasts of more than 4000 airports (METAR and TAF reports).

The available stations are represented by yellow and red dots on the map.

Hover mouse over dot to see the name of the station.

Then click to see weather observations and forecasts.

To change the map : click on the green buttons with a black cross to zoom in, on the green button with a dash to zoom out, or on the green arrows for adjacent maps.


METAR-TAF: